createdAt,value
2023-04-12T00:01:01.451Z,7.20
2023-04-12T00:03:28.196Z,6.28
2023-04-12T00:05:55.341Z,6.40
2023-04-12T00:08:33.633Z,5.95
2023-04-12T00:11:02.143Z,6.63
2023-04-12T00:13:29.853Z,6.57
2023-04-12T00:15:56.656Z,6.40
2023-04-12T00:18:25.347Z,6.95
2023-04-12T00:20:52.610Z,7.10
2023-04-12T00:23:19.340Z,6.35
2023-04-12T00:25:46.407Z,7.03
2023-04-12T00:28:13.085Z,7.03
2023-04-12T00:30:41.300Z,7.10
2023-04-12T00:33:08.496Z,6.97
2023-04-12T00:35:35.179Z,6.95
2023-04-12T00:38:03.721Z,6.60
2023-04-12T00:40:30.835Z,6.40
2023-04-12T00:42:57.941Z,7.07
2023-04-12T00:45:24.526Z,6.28
2023-04-12T00:47:51.310Z,6.75
2023-04-12T00:50:18.280Z,6.90
2023-04-12T00:52:45.219Z,7.10
2023-04-12T00:55:12.061Z,6.68
2023-04-12T00:57:40.512Z,7.78
2023-04-12T01:00:13.147Z,6.78
2023-04-12T01:02:50.566Z,8.02
2023-04-12T01:05:23.845Z,6.60
2023-04-12T01:08:28.461Z,7.57
2023-04-12T01:11:17.999Z,6.68
2023-04-12T01:13:59.805Z,6.78
2023-04-12T01:16:41.535Z,7.25
2023-04-12T01:19:47.647Z,6.95
2023-04-12T01:22:27.083Z,6.13
2023-04-12T01:25:34.379Z,7.57
2023-04-12T01:28:03.504Z,7.63
2023-04-12T01:30:31.796Z,7.35
2023-04-12T01:33:01.894Z,7.47
2023-04-12T01:35:30.936Z,7.45
2023-04-12T01:37:58.855Z,7.75
2023-04-12T01:40:28.139Z,9.10
2023-04-12T01:43:11.634Z,7.90
2023-04-12T01:45:39.069Z,7.88
2023-04-12T01:48:09.292Z,7.35
2023-04-12T01:50:41.585Z,8.52
2023-04-12T01:55:45.967Z,7.55
2023-04-12T01:58:14.914Z,7.60
2023-04-12T02:00:44.459Z,7.78
2023-04-12T02:03:12.879Z,8.07
2023-04-12T02:05:39.932Z,8.60
2023-04-12T02:08:06.971Z,7.53
2023-04-12T02:10:36.585Z,7.85
2023-04-12T02:13:04.395Z,9.32
2023-04-12T02:15:31.461Z,9.43
2023-04-12T02:17:59.513Z,8.93
2023-04-12T02:20:27.279Z,8.93
2023-04-12T02:22:54.308Z,7.90
2023-04-12T02:25:21.375Z,7.38
2023-04-12T02:27:48.911Z,8.93
2023-04-12T02:30:15.739Z,6.97
2023-04-12T02:32:45.337Z,7.70
2023-04-12T02:35:19.210Z,9.15
2023-04-12T02:37:48.669Z,7.80
2023-04-12T02:40:18.578Z,8.07
2023-04-12T02:42:45.758Z,8.18
2023-04-12T02:45:12.379Z,8.70
2023-04-12T02:47:40.303Z,8.05
2023-04-12T02:50:07.808Z,7.93
2023-04-12T02:52:34.532Z,8.80
2023-04-12T02:55:01.259Z,9.05
2023-04-12T02:57:27.871Z,8.90
2023-04-12T02:59:55.009Z,9.07
2023-04-12T03:02:22.940Z,8.43
2023-04-12T03:04:53.394Z,9.93
2023-04-12T03:07:21.380Z,8.82
2023-04-12T03:09:50.184Z,10.25
2023-04-12T03:12:17.167Z,9.68
2023-04-12T03:14:43.904Z,9.90
2023-04-12T03:17:11.098Z,10.52
2023-04-12T03:19:37.827Z,9.45
2023-04-12T03:22:06.125Z,10.48
2023-04-12T03:24:37.211Z,9.82
2023-04-12T03:27:05.453Z,10.30
2023-04-12T03:29:32.719Z,10.45
2023-04-12T03:31:59.676Z,9.60
2023-04-12T03:34:32.218Z,11.40
2023-04-12T03:37:02.438Z,9.48
2023-04-12T03:39:29.226Z,10.85
2023-04-12T03:41:56.126Z,9.90
2023-04-12T03:44:26.159Z,9.80
2023-04-12T03:46:53.099Z,9.63
2023-04-12T03:49:19.932Z,9.52
2023-04-12T03:51:46.642Z,10.65
2023-04-12T03:54:13.337Z,9.05
2023-04-12T03:56:40.057Z,10.85
2023-04-12T03:59:10.036Z,10.15
2023-04-12T04:01:37.320Z,10.10
2023-04-12T04:04:04.501Z,9.68
2023-04-12T04:06:31.438Z,10.35
2023-04-12T04:08:58.516Z,10.50
2023-04-12T04:11:25.656Z,9.65
2023-04-12T04:13:52.464Z,10.57
2023-04-12T04:16:19.395Z,9.75
2023-04-12T04:18:46.261Z,11.38
2023-04-12T04:21:14.321Z,10.95
2023-04-12T04:23:45.130Z,11.10
2023-04-12T04:26:12.492Z,9.43
2023-04-12T04:28:42.249Z,10.35
2023-04-12T04:31:10.522Z,10.25
2023-04-12T04:33:39.042Z,9.68
2023-04-12T04:36:09.885Z,8.82
2023-04-12T04:38:36.769Z,9.45
2023-04-12T04:41:03.634Z,10.30
2023-04-12T04:43:31.361Z,9.75
2023-04-12T04:45:58.434Z,11.25
2023-04-12T04:48:25.213Z,10.40
2023-04-12T04:50:51.832Z,8.63
2023-04-12T04:53:20.107Z,8.93
2023-04-12T04:55:47.844Z,10.13
2023-04-12T04:58:16.225Z,11.27
2023-04-12T05:00:44.947Z,9.77
2023-04-12T05:03:12.133Z,9.32
2023-04-12T05:05:39.184Z,8.80
2023-04-12T05:08:06.292Z,8.80
2023-04-12T05:10:33.220Z,8.88
2023-04-12T05:12:59.865Z,8.38
2023-04-12T05:15:26.493Z,8.30
2023-04-12T05:17:53.164Z,8.23
2023-04-12T05:20:19.945Z,7.60
2023-04-12T05:22:46.683Z,6.80
2023-04-12T05:25:13.440Z,6.57
2023-04-12T05:27:40.160Z,6.22
2023-04-12T05:30:08.044Z,5.53
2023-04-12T05:32:34.751Z,6.28
2023-04-12T05:35:01.758Z,6.15
2023-04-12T05:37:28.603Z,5.78
2023-04-12T05:39:58.264Z,5.20
2023-04-12T05:42:24.946Z,4.97
2023-04-12T05:44:52.016Z,5.30
2023-04-12T05:47:18.710Z,4.32
2023-04-12T05:49:45.533Z,4.28
2023-04-12T05:52:12.156Z,4.60
2023-04-12T05:54:38.777Z,4.38
2023-04-12T05:57:05.703Z,4.15
2023-04-12T05:59:32.305Z,3.80
2023-04-12T06:01:59.347Z,3.85
2023-04-12T06:04:42.166Z,3.58
2023-04-12T06:09:42.224Z,3.97
2023-04-12T06:12:08.820Z,4.18
2023-04-12T06:14:35.479Z,4.72
2023-04-12T06:17:02.183Z,3.00
2023-04-12T06:19:28.899Z,4.00
2023-04-12T06:21:55.536Z,3.80
2023-04-12T06:24:22.235Z,2.47
2023-04-12T06:26:48.880Z,2.63
2023-04-12T06:29:15.595Z,3.33
2023-04-12T06:31:42.320Z,3.33
2023-04-12T06:34:09.004Z,3.42
2023-04-12T06:36:35.644Z,2.90
2023-04-12T06:39:03.205Z,3.10
2023-04-12T06:41:29.825Z,3.10
2023-04-12T06:43:56.466Z,2.45
2023-04-12T06:46:27.605Z,2.30
2023-04-12T06:48:54.390Z,2.17
2023-04-12T06:51:21.092Z,2.35
2023-04-12T06:53:47.930Z,1.70
2023-04-12T06:56:16.014Z,1.90
2023-04-12T06:58:44.900Z,2.72
2023-04-12T07:01:11.580Z,1.92
2023-04-12T07:03:39.044Z,1.95
2023-04-12T07:06:21.472Z,2.25
2023-04-12T07:08:51.488Z,2.40
2023-04-12T07:11:21.345Z,1.98
2023-04-12T07:13:48.904Z,1.98
2023-04-12T07:16:16.395Z,1.65
2023-04-12T07:18:42.961Z,1.75
2023-04-12T07:21:09.681Z,2.60
2023-04-12T07:23:36.289Z,2.60
2023-04-12T07:26:02.956Z,2.13
2023-04-12T07:28:29.685Z,2.50
2023-04-12T07:30:56.319Z,1.73
2023-04-12T07:33:23.381Z,1.80
2023-04-12T07:35:50.087Z,2.13
2023-04-12T07:38:17.154Z,1.92
2023-04-12T07:40:43.974Z,1.52
2023-04-12T07:43:10.682Z,1.85
2023-04-12T07:45:38.182Z,1.55
2023-04-12T07:48:05.770Z,1.52
2023-04-12T07:50:32.553Z,1.30
2023-04-12T07:53:21.492Z,1.50
2023-04-12T07:55:48.183Z,1.58
2023-04-12T07:58:16.018Z,1.58
2023-04-12T08:00:43.453Z,1.10
2023-04-12T08:03:12.952Z,0.88
2023-04-12T08:05:40.281Z,1.10
2023-04-12T08:08:08.536Z,1.23
2023-04-12T08:10:35.169Z,1.00
2023-04-12T08:13:01.862Z,1.13
2023-04-12T08:15:28.495Z,1.27
2023-04-12T08:17:55.424Z,1.15
2023-04-12T08:20:22.128Z,0.73
2023-04-12T08:22:49.536Z,0.70
2023-04-12T08:25:16.458Z,0.93
2023-04-12T08:27:43.573Z,1.20
2023-04-12T08:30:11.705Z,0.80
2023-04-12T08:32:39.334Z,0.65
2023-04-12T08:35:07.113Z,0.43
2023-04-12T08:37:34.343Z,0.98
2023-04-12T08:40:04.943Z,1.00
2023-04-12T08:42:34.262Z,0.70
2023-04-12T08:45:06.336Z,0.85
2023-04-12T08:47:37.084Z,1.00
2023-04-12T08:50:08.230Z,0.90
2023-04-12T08:52:36.537Z,0.95
2023-04-12T08:55:04.381Z,1.20
2023-04-12T08:57:32.903Z,1.48
2023-04-12T09:00:04.850Z,1.00
2023-04-12T09:02:31.893Z,0.80
2023-04-12T09:04:58.825Z,0.70
2023-04-12T09:07:30.557Z,0.77
2023-04-12T09:09:58.860Z,1.38
2023-04-12T09:12:25.975Z,1.48
2023-04-12T09:15:13.581Z,0.70
2023-04-12T09:17:42.602Z,0.63
2023-04-12T09:20:12.356Z,1.40
2023-04-12T09:22:44.328Z,0.60
2023-04-12T09:25:11.873Z,0.45
2023-04-12T09:27:52.076Z,0.65
2023-04-12T09:30:20.139Z,0.60
2023-04-12T09:32:51.028Z,0.40
2023-04-12T09:35:18.084Z,0.70
2023-04-12T09:37:44.758Z,0.60
2023-04-12T09:40:11.987Z,0.38
2023-04-12T09:42:56.286Z,0.68
2023-04-12T09:45:25.529Z,0.60
2023-04-12T09:47:54.033Z,0.68
2023-04-12T09:50:26.618Z,0.50
2023-04-12T09:52:54.966Z,0.57
2023-04-12T09:55:23.638Z,0.68
2023-04-12T09:57:52.378Z,0.50
2023-04-12T10:00:22.483Z,3.88
2023-04-12T10:02:53.789Z,4.78
2023-04-12T10:05:25.285Z,0.65
2023-04-12T10:07:53.081Z,0.17
2023-04-12T10:10:21.192Z,0.35
2023-04-12T10:12:49.138Z,0.40
2023-04-12T10:15:21.846Z,0.50
2023-04-12T10:17:53.949Z,0.70
2023-04-12T10:20:24.781Z,0.47
2023-04-12T10:25:22.762Z,0.63
2023-04-12T10:27:49.892Z,0.57
2023-04-12T10:30:23.404Z,0.50
2023-04-12T10:33:10.414Z,0.40
2023-04-12T10:35:58.003Z,0.68
2023-04-12T10:38:26.949Z,0.35
2023-04-12T10:41:15.791Z,0.60
2023-04-12T10:43:52.094Z,0.45
2023-04-12T10:46:41.024Z,0.30
2023-04-12T10:49:09.864Z,0.80
2023-04-12T10:51:36.728Z,0.52
2023-04-12T10:54:12.458Z,0.45
2023-04-12T10:56:47.682Z,0.55
2023-04-12T10:59:16.703Z,0.20
2023-04-12T11:02:10.557Z,0.52
2023-04-12T11:04:37.587Z,0.40
2023-04-12T11:07:10.218Z,0.32
2023-04-12T11:09:36.857Z,0.60
2023-04-12T11:12:08.784Z,0.40
2023-04-12T11:14:38.773Z,0.32
2023-04-12T11:17:08.521Z,0.28
2023-04-12T11:19:40.205Z,0.40
2023-04-12T11:22:09.307Z,0.65
2023-04-12T11:24:59.905Z,0.47
2023-04-12T11:27:27.789Z,0.32
2023-04-12T11:29:56.835Z,0.20
2023-04-12T11:32:26.451Z,0.45
2023-04-12T11:34:55.546Z,0.45
2023-04-12T11:37:23.343Z,1.13
2023-04-12T11:39:55.995Z,0.50
2023-04-12T11:42:27.294Z,0.80
2023-04-12T11:44:59.851Z,0.60
2023-04-12T11:47:30.187Z,0.63
2023-04-12T11:49:59.006Z,0.80
2023-04-12T11:52:30.750Z,0.40
2023-04-12T11:55:01.428Z,0.40
2023-04-12T11:57:29.277Z,0.28
2023-04-12T11:59:58.822Z,0.40
2023-04-12T12:02:29.124Z,0.57
2023-04-12T12:04:58.947Z,0.45
2023-04-12T12:07:26.732Z,0.30
2023-04-12T12:09:54.037Z,0.50
2023-04-12T12:12:24.130Z,0.45
2023-04-12T12:14:50.912Z,0.25
2023-04-12T12:17:17.664Z,0.20
2023-04-12T12:19:45.783Z,0.55
2023-04-12T12:22:20.708Z,0.30
2023-04-12T12:25:00.398Z,0.45
2023-04-12T12:27:43.335Z,1.00
2023-04-12T12:30:12.298Z,0.43
2023-04-12T12:32:40.548Z,0.50
2023-04-12T12:35:12.171Z,0.43
2023-04-12T12:37:56.085Z,0.40
2023-04-12T12:40:32.456Z,0.40
2023-04-12T12:43:00.330Z,0.30
2023-04-12T12:45:29.188Z,0.50
2023-04-12T12:48:05.177Z,0.40
2023-04-12T12:50:34.226Z,0.45
2023-04-12T12:53:02.316Z,0.80
2023-04-12T12:55:31.000Z,0.38
2023-04-12T13:00:29.428Z,0.45
2023-04-12T13:02:56.672Z,0.73
2023-04-12T13:05:23.764Z,0.70
2023-04-12T13:07:50.611Z,0.45
2023-04-12T13:10:17.516Z,0.30
2023-04-12T13:12:44.140Z,0.32
2023-04-12T13:15:22.035Z,0.50
2023-04-12T13:17:52.081Z,1.08
2023-04-12T13:20:18.836Z,0.52
2023-04-12T13:22:45.562Z,0.55
2023-04-12T13:25:12.290Z,0.52
2023-04-12T13:27:39.165Z,0.40
2023-04-12T13:30:07.172Z,0.30
2023-04-12T13:32:33.876Z,0.30
2023-04-12T13:35:00.642Z,0.35
2023-04-12T13:37:27.435Z,0.65
2023-04-12T13:39:54.142Z,0.55
2023-04-12T13:42:22.339Z,0.55
2023-04-12T13:44:49.025Z,0.50
2023-04-12T13:47:17.858Z,0.50
2023-04-12T13:49:44.766Z,0.25
2023-04-12T13:52:11.750Z,0.73
2023-04-12T13:54:38.687Z,0.52
2023-04-12T13:57:06.072Z,0.63
2023-04-12T13:59:33.018Z,0.47
2023-04-12T14:02:00.826Z,0.40
2023-04-12T14:04:28.723Z,0.40
2023-04-12T14:06:56.021Z,0.85
2023-04-12T14:09:30.720Z,1.83
2023-04-12T14:11:58.798Z,0.43
2023-04-12T14:14:26.436Z,0.80
2023-04-12T14:16:57.766Z,0.40
2023-04-12T14:19:24.953Z,0.30
2023-04-12T14:21:51.899Z,0.35
2023-04-12T14:24:19.499Z,0.38
2023-04-12T14:26:46.909Z,0.52
2023-04-12T14:29:13.678Z,0.75
2023-04-12T14:31:40.626Z,0.85
2023-04-12T14:34:10.988Z,0.30
2023-04-12T14:36:37.714Z,0.30
2023-04-12T14:39:06.976Z,0.40
2023-04-12T14:41:35.822Z,0.40
2023-04-12T14:44:02.760Z,0.38
2023-04-12T14:46:30.862Z,0.40
2023-04-12T14:48:59.738Z,0.50
2023-04-12T14:51:27.830Z,0.30
2023-04-12T14:53:54.527Z,0.60
2023-04-12T14:56:24.668Z,0.40
2023-04-12T14:58:56.036Z,0.40
2023-04-12T15:01:23.879Z,0.70
2023-04-12T15:03:52.372Z,0.47
2023-04-12T15:06:20.974Z,0.30
2023-04-12T15:08:49.530Z,0.38
2023-04-12T15:11:19.183Z,0.30
2023-04-12T15:13:45.993Z,0.30
2023-04-12T15:16:12.763Z,0.55
2023-04-12T15:18:41.628Z,0.82
2023-04-12T15:21:10.472Z,0.30
2023-04-12T15:23:38.072Z,0.40
2023-04-12T15:26:06.744Z,0.30
2023-04-12T15:28:33.826Z,0.47
2023-04-12T15:31:01.258Z,0.50
2023-04-12T15:33:29.273Z,0.50
2023-04-12T15:35:56.761Z,0.70
2023-04-12T15:38:26.062Z,0.40
2023-04-12T15:40:57.174Z,0.30
2023-04-12T15:43:36.309Z,0.38
2023-04-12T15:46:12.986Z,0.25
2023-04-12T15:48:39.655Z,0.35
2023-04-12T15:51:06.441Z,0.55
2023-04-12T15:53:33.073Z,0.40
2023-04-12T15:56:00.963Z,0.90
2023-04-12T15:58:27.633Z,0.38
2023-04-12T16:00:54.591Z,0.52
2023-04-12T16:03:26.333Z,0.30
2023-04-12T16:05:54.723Z,0.30
2023-04-12T16:08:22.484Z,0.20
2023-04-12T16:10:50.493Z,0.38
2023-04-12T16:13:17.310Z,0.32
2023-04-12T16:15:44.104Z,0.47
2023-04-12T16:18:11.190Z,0.22
2023-04-12T16:20:37.935Z,0.43
2023-04-12T16:23:05.263Z,0.50
2023-04-12T16:25:33.373Z,0.60
2023-04-12T16:28:02.653Z,0.70
2023-04-12T16:30:32.652Z,0.50
2023-04-12T16:32:59.869Z,0.30
2023-04-12T16:35:26.919Z,2.05
2023-04-12T16:37:54.725Z,2.92
2023-04-12T16:40:22.149Z,1.05
2023-04-12T16:42:48.772Z,0.55
2023-04-12T16:45:15.552Z,0.68
2023-04-12T16:47:42.603Z,0.80
2023-04-12T16:50:10.002Z,1.08
2023-04-12T16:52:37.984Z,0.85
2023-04-12T16:55:05.118Z,0.60
2023-04-12T16:57:32.884Z,1.42
2023-04-12T16:59:59.657Z,1.63
2023-04-12T17:02:26.924Z,2.40
2023-04-12T17:04:53.611Z,1.20
2023-04-12T17:07:20.345Z,0.65
2023-04-12T17:09:46.991Z,1.52
2023-04-12T17:12:13.637Z,0.60
2023-04-12T17:14:40.719Z,0.88
2023-04-12T17:17:07.500Z,0.75
2023-04-12T17:19:34.381Z,2.03
2023-04-12T17:22:01.198Z,0.70
2023-04-12T17:24:29.255Z,0.80
2023-04-12T17:26:57.849Z,0.95
2023-04-12T17:29:24.745Z,1.33
2023-04-12T17:31:54.243Z,1.20
2023-04-12T17:34:22.226Z,1.25
2023-04-12T17:36:49.361Z,1.58
2023-04-12T17:39:16.373Z,1.42
2023-04-12T17:41:43.242Z,1.90
2023-04-12T17:44:09.931Z,1.45
2023-04-12T17:46:36.740Z,1.27
2023-04-12T17:49:05.974Z,1.10
2023-04-12T17:51:33.385Z,1.27
2023-04-12T17:54:00.949Z,1.83
2023-04-12T17:56:28.209Z,1.35
2023-04-12T17:58:55.271Z,1.20
2023-04-12T18:01:22.394Z,1.25
2023-04-12T18:03:49.493Z,0.63
2023-04-12T18:06:18.476Z,0.40
2023-04-12T18:08:45.352Z,1.38
2023-04-12T18:11:13.107Z,0.50
2023-04-12T18:13:39.762Z,1.02
2023-04-12T18:16:07.273Z,0.68
2023-04-12T18:18:34.198Z,1.08
2023-04-12T18:21:06.361Z,1.70
2023-04-12T18:23:33.335Z,2.70
2023-04-12T18:26:00.000Z,3.30
2023-04-12T18:28:27.574Z,2.60
2023-04-12T18:30:57.168Z,3.42
2023-04-12T18:33:24.065Z,2.58
2023-04-12T18:35:51.355Z,2.47
2023-04-12T18:38:18.730Z,2.22
2023-04-12T18:40:45.315Z,1.65
2023-04-12T18:43:12.302Z,1.98
2023-04-12T18:45:41.939Z,1.73
2023-04-12T18:48:09.364Z,1.42
2023-04-12T18:50:39.486Z,1.38
2023-04-12T18:53:07.069Z,1.30
2023-04-12T18:55:33.682Z,1.30
2023-04-12T18:58:00.436Z,5.47
2023-04-12T19:00:27.890Z,4.32
2023-04-12T19:02:55.092Z,1.50
2023-04-12T19:05:22.009Z,1.35
2023-04-12T19:07:48.861Z,1.35
2023-04-12T19:10:15.990Z,1.20
2023-04-12T19:12:42.779Z,1.10
2023-04-12T19:15:10.698Z,1.23
2023-04-12T19:17:39.048Z,1.60
2023-04-12T19:20:07.795Z,1.08
2023-04-12T19:22:34.540Z,1.17
2023-04-12T19:25:01.810Z,1.08
2023-04-12T19:27:29.043Z,0.95
2023-04-12T19:29:56.544Z,0.90
2023-04-12T19:32:23.395Z,1.50
2023-04-12T19:34:50.514Z,1.30
2023-04-12T19:37:18.085Z,1.33
2023-04-12T19:39:44.943Z,1.10
2023-04-12T19:42:12.017Z,1.05
2023-04-12T19:44:40.424Z,1.02
2023-04-12T19:47:07.441Z,0.93
2023-04-12T19:49:35.252Z,0.52
2023-04-12T19:52:05.601Z,1.00
2023-04-12T19:54:33.680Z,1.15
2023-04-12T19:57:00.586Z,1.17
2023-04-12T19:59:30.999Z,0.82
2023-04-12T20:01:58.457Z,2.08
2023-04-12T20:04:25.341Z,1.20
2023-04-12T20:06:52.717Z,1.35
2023-04-12T20:09:20.117Z,1.38
2023-04-12T20:11:47.450Z,0.90
2023-04-12T20:14:14.360Z,0.80
2023-04-12T20:16:45.376Z,0.68
2023-04-12T20:19:14.060Z,0.80
2023-04-12T20:21:40.814Z,0.70
2023-04-12T20:24:09.110Z,0.82
2023-04-12T20:26:36.452Z,0.70
2023-04-12T20:29:06.982Z,0.57
2023-04-12T20:31:33.907Z,0.52
2023-04-12T20:34:00.667Z,0.55
2023-04-12T20:36:29.358Z,0.60
2023-04-12T20:38:56.470Z,0.68
2023-04-12T20:41:24.307Z,1.10
2023-04-12T20:43:51.127Z,0.93
2023-04-12T20:46:20.713Z,0.77
2023-04-12T20:48:49.822Z,0.80
2023-04-12T20:51:18.736Z,0.73
2023-04-12T20:53:47.468Z,1.30
2023-04-12T20:56:15.281Z,0.88
2023-04-12T20:58:43.045Z,0.82
2023-04-12T21:01:14.833Z,1.00
2023-04-12T21:03:43.417Z,1.30
2023-04-12T21:06:11.078Z,1.02
2023-04-12T21:08:39.054Z,1.00
2023-04-12T21:11:06.331Z,0.77
2023-04-12T21:13:34.616Z,1.38
2023-04-12T21:16:05.675Z,1.00
2023-04-12T21:18:34.153Z,2.05
2023-04-12T21:21:00.898Z,1.35
2023-04-12T21:23:30.869Z,2.08
2023-04-12T21:25:57.719Z,1.80
2023-04-12T21:28:24.492Z,1.95
2023-04-12T21:30:55.131Z,1.30
2023-04-12T21:33:25.155Z,1.60
2023-04-12T21:35:55.652Z,1.15
2023-04-12T21:38:23.406Z,1.08
2023-04-12T21:40:51.872Z,1.52
2023-04-12T21:43:18.917Z,1.27
2023-04-12T21:45:46.087Z,1.58
2023-04-12T21:48:14.678Z,1.77
2023-04-12T21:50:42.112Z,1.48
2023-04-12T21:53:09.016Z,1.42
2023-04-12T21:55:36.330Z,1.60
2023-04-12T21:58:03.749Z,1.50
2023-04-12T22:00:32.169Z,1.70
2023-04-12T22:02:59.559Z,1.75
2023-04-12T22:05:27.984Z,2.00
2023-04-12T22:07:55.402Z,1.63
2023-04-12T22:10:22.124Z,1.48
2023-04-12T22:12:51.239Z,1.52
2023-04-12T22:15:17.967Z,2.00
2023-04-12T22:17:45.337Z,1.85
2023-04-12T22:20:13.100Z,1.50
2023-04-12T22:22:40.636Z,1.00
2023-04-12T22:25:08.619Z,2.00
2023-04-12T22:27:35.303Z,1.48
2023-04-12T22:30:03.944Z,1.30
2023-04-12T22:32:32.201Z,1.42
2023-04-12T22:35:08.219Z,1.10
2023-04-12T22:37:36.099Z,1.20
2023-04-12T22:40:05.095Z,1.05
2023-04-12T22:42:32.035Z,1.30
2023-04-12T22:44:58.669Z,0.98
2023-04-12T22:47:26.685Z,0.80
2023-04-12T22:50:01.058Z,0.80
2023-04-12T22:52:30.618Z,1.63
2023-04-12T22:55:00.266Z,1.35
2023-04-12T22:57:27.471Z,1.50
2023-04-12T22:59:54.146Z,1.33
2023-04-12T23:02:20.940Z,1.02
2023-04-12T23:04:49.219Z,1.55
2023-04-12T23:07:16.523Z,1.42
2023-04-12T23:09:45.166Z,1.20
2023-04-12T23:12:12.641Z,1.00
2023-04-12T23:14:40.025Z,1.15
2023-04-12T23:17:07.450Z,1.48
2023-04-12T23:19:34.562Z,1.10
2023-04-12T23:22:01.195Z,1.27
2023-04-12T23:24:27.819Z,1.13
2023-04-12T23:26:57.833Z,1.15
2023-04-12T23:29:25.792Z,1.85
2023-04-12T23:31:52.804Z,1.38
2023-04-12T23:34:22.150Z,1.30
2023-04-12T23:36:50.223Z,1.00
2023-04-12T23:39:18.193Z,1.50
2023-04-12T23:41:46.624Z,1.63
2023-04-12T23:44:13.799Z,1.73
2023-04-12T23:46:40.656Z,2.25
2023-04-12T23:49:07.395Z,1.38
2023-04-12T23:51:33.995Z,1.33
2023-04-12T23:54:00.894Z,1.33
2023-04-12T23:56:27.833Z,1.27
2023-04-12T23:58:54.415Z,1.20
